sensor_id;sensor_type;location;lat;lon;timestamp;temperature;humidity
34008;DHT22;41085;51.594;7.138;2022-08-23T00:03:41;24.40;71.10
34008;DHT22;41085;51.594;7.138;2022-08-23T00:07:48;24.40;74.60
34008;DHT22;41085;51.594;7.138;2022-08-23T00:11:52;24.30;74.60
34008;DHT22;41085;51.594;7.138;2022-08-23T00:15:53;24.30;72.80
34008;DHT22;41085;51.594;7.138;2022-08-23T00:19:54;24.30;71.90
34008;DHT22;41085;51.594;7.138;2022-08-23T00:23:55;24.30;71.80
34008;DHT22;41085;51.594;7.138;2022-08-23T00:27:56;24.30;72.30
34008;DHT22;41085;51.594;7.138;2022-08-23T00:31:59;24.40;71.70
34008;DHT22;41085;51.594;7.138;2022-08-23T00:36:08;24.40;71.40
34008;DHT22;41085;51.594;7.138;2022-08-23T00:40:13;24.30;72.10
34008;DHT22;41085;51.594;7.138;2022-08-23T00:44:20;24.30;71.50
34008;DHT22;41085;51.594;7.138;2022-08-23T00:48:40;24.30;71.50
34008;DHT22;41085;51.594;7.138;2022-08-23T00:56:52;24.30;72.40
34008;DHT22;41085;51.594;7.138;2022-08-23T01:00:54;24.20;71.80
34008;DHT22;41085;51.594;7.138;2022-08-23T01:04:57;24.20;71.80
34008;DHT22;41085;51.594;7.138;2022-08-23T01:09:05;24.20;72.10
34008;DHT22;41085;51.594;7.138;2022-08-23T01:13:26;24.20;72.00
34008;DHT22;41085;51.594;7.138;2022-08-23T01:17:42;24.20;72.10
34008;DHT22;41085;51.594;7.138;2022-08-23T01:21:50;24.20;72.20
34008;DHT22;41085;51.594;7.138;2022-08-23T01:25:52;24.20;72.20
34008;DHT22;41085;51.594;7.138;2022-08-23T01:29:53;24.20;72.60
34008;DHT22;41085;51.594;7.138;2022-08-23T01:33:59;24.10;72.60
34008;DHT22;41085;51.594;7.138;2022-08-23T01:38:00;24.00;72.80
34008;DHT22;41085;51.594;7.138;2022-08-23T01:42:01;24.00;72.90
34008;DHT22;41085;51.594;7.138;2022-08-23T01:46:11;24.00;73.30
34008;DHT22;41085;51.594;7.138;2022-08-23T01:50:12;24.00;73.00
34008;DHT22;41085;51.594;7.138;2022-08-23T01:54:13;23.90;73.40
34008;DHT22;41085;51.594;7.138;2022-08-23T01:58:13;23.70;73.80
34008;DHT22;41085;51.594;7.138;2022-08-23T02:02:14;23.70;74.00
34008;DHT22;41085;51.594;7.138;2022-08-23T02:06:15;23.70;74.10
34008;DHT22;41085;51.594;7.138;2022-08-23T02:10:16;23.60;74.40
34008;DHT22;41085;51.594;7.138;2022-08-23T02:14:19;23.50;74.70
34008;DHT22;41085;51.594;7.138;2022-08-23T02:18:20;23.50;75.00
34008;DHT22;41085;51.594;7.138;2022-08-23T02:22:21;23.50;75.20
34008;DHT22;41085;51.594;7.138;2022-08-23T02:26:21;23.40;75.50
34008;DHT22;41085;51.594;7.138;2022-08-23T02:30:23;23.30;75.80
34008;DHT22;41085;51.594;7.138;2022-08-23T02:34:24;23.30;76.50
34008;DHT22;41085;51.594;7.138;2022-08-23T02:38:25;23.30;76.00
34008;DHT22;41085;51.594;7.138;2022-08-23T02:42:25;23.30;76.30
34008;DHT22;41085;51.594;7.138;2022-08-23T02:46:26;23.20;76.50
34008;DHT22;41085;51.594;7.138;2022-08-23T02:50:27;23.20;76.70
34008;DHT22;41085;51.594;7.138;2022-08-23T02:54:27;23.20;76.90
34008;DHT22;41085;51.594;7.138;2022-08-23T02:58:28;23.20;76.80
34008;DHT22;41085;51.594;7.138;2022-08-23T03:02:29;23.20;76.80
34008;DHT22;41085;51.594;7.138;2022-08-23T03:06:29;23.20;76.90
34008;DHT22;41085;51.594;7.138;2022-08-23T03:10:30;23.20;76.80
34008;DHT22;41085;51.594;7.138;2022-08-23T03:14:30;23.20;76.90
34008;DHT22;41085;51.594;7.138;2022-08-23T03:18:31;23.10;77.30
34008;DHT22;41085;51.594;7.138;2022-08-23T03:22:32;23.00;77.60
34008;DHT22;41085;51.594;7.138;2022-08-23T03:26:33;22.90;78.00
34008;DHT22;41085;51.594;7.138;2022-08-23T03:30:34;22.90;78.00
34008;DHT22;41085;51.594;7.138;2022-08-23T03:34:35;22.90;78.90
34008;DHT22;41085;51.594;7.138;2022-08-23T03:38:36;22.80;78.50
34008;DHT22;41085;51.594;7.138;2022-08-23T03:42:38;22.80;78.50
34008;DHT22;41085;51.594;7.138;2022-08-23T03:46:39;22.70;78.80
34008;DHT22;41085;51.594;7.138;2022-08-23T03:50:40;22.70;79.20
34008;DHT22;41085;51.594;7.138;2022-08-23T03:54:40;22.70;79.30
34008;DHT22;41085;51.594;7.138;2022-08-23T03:58:41;22.70;79.10
34008;DHT22;41085;51.594;7.138;2022-08-23T04:02:41;22.60;79.40
34008;DHT22;41085;51.594;7.138;2022-08-23T04:06:42;22.70;79.40
34008;DHT22;41085;51.594;7.138;2022-08-23T04:10:44;22.70;79.40
34008;DHT22;41085;51.594;7.138;2022-08-23T04:14:45;22.60;79.40
34008;DHT22;41085;51.594;7.138;2022-08-23T04:18:46;22.70;79.40
34008;DHT22;41085;51.594;7.138;2022-08-23T04:22:51;22.60;79.50
34008;DHT22;41085;51.594;7.138;2022-08-23T04:26:52;22.60;79.80
34008;DHT22;41085;51.594;7.138;2022-08-23T04:30:52;22.50;80.10
34008;DHT22;41085;51.594;7.138;2022-08-23T04:34:53;22.50;80.10
34008;DHT22;41085;51.594;7.138;2022-08-23T04:38:54;22.40;80.40
34008;DHT22;41085;51.594;7.138;2022-08-23T04:42:54;22.50;80.20
34008;DHT22;41085;51.594;7.138;2022-08-23T04:46:55;22.50;80.10
34008;DHT22;41085;51.594;7.138;2022-08-23T04:50:56;22.50;80.10
34008;DHT22;41085;51.594;7.138;2022-08-23T04:54:56;22.50;80.20
34008;DHT22;41085;51.594;7.138;2022-08-23T04:58:57;22.50;80.90
34008;DHT22;41085;51.594;7.138;2022-08-23T05:02:58;22.50;80.20
34008;DHT22;41085;51.594;7.138;2022-08-23T05:06:58;22.60;80.00
34008;DHT22;41085;51.594;7.138;2022-08-23T05:11:04;22.60;80.10
34008;DHT22;41085;51.594;7.138;2022-08-23T05:15:05;22.60;80.00
34008;DHT22;41085;51.594;7.138;2022-08-23T05:19:06;22.50;80.00
34008;DHT22;41085;51.594;7.138;2022-08-23T05:23:07;22.50;80.20
34008;DHT22;41085;51.594;7.138;2022-08-23T05:27:08;22.60;80.20
34008;DHT22;41085;51.594;7.138;2022-08-23T05:31:18;22.60;80.20
34008;DHT22;41085;51.594;7.138;2022-08-23T05:35:18;22.60;79.90
34008;DHT22;41085;51.594;7.138;2022-08-23T05:39:19;22.70;80.00
34008;DHT22;41085;51.594;7.138;2022-08-23T05:43:20;22.70;79.70
34008;DHT22;41085;51.594;7.138;2022-08-23T05:47:22;22.60;79.60
34008;DHT22;41085;51.594;7.138;2022-08-23T05:51:28;22.80;79.60
34008;DHT22;41085;51.594;7.138;2022-08-23T05:55:29;22.70;79.60
34008;DHT22;41085;51.594;7.138;2022-08-23T05:59:30;23.00;80.10
34008;DHT22;41085;51.594;7.138;2022-08-23T06:03:30;22.70;79.80
34008;DHT22;41085;51.594;7.138;2022-08-23T06:07:33;22.70;79.50
34008;DHT22;41085;51.594;7.138;2022-08-23T06:11:34;22.70;79.40
34008;DHT22;41085;51.594;7.138;2022-08-23T06:15:42;22.70;78.80
34008;DHT22;41085;51.594;7.138;2022-08-23T06:19:42;22.70;78.60
34008;DHT22;41085;51.594;7.138;2022-08-23T06:23:43;22.80;78.30
34008;DHT22;41085;51.594;7.138;2022-08-23T06:27:45;22.80;77.80
34008;DHT22;41085;51.594;7.138;2022-08-23T06:31:49;22.90;77.50
34008;DHT22;41085;51.594;7.138;2022-08-23T06:36:00;23.10;77.00
34008;DHT22;41085;51.594;7.138;2022-08-23T06:40:02;23.00;77.20
34008;DHT22;41085;51.594;7.138;2022-08-23T06:44:04;23.00;76.00
34008;DHT22;41085;51.594;7.138;2022-08-23T06:48:06;23.00;75.60
34008;DHT22;41085;51.594;7.138;2022-08-23T06:52:07;23.10;75.40
34008;DHT22;41085;51.594;7.138;2022-08-23T06:56:08;23.10;75.00
34008;DHT22;41085;51.594;7.138;2022-08-23T07:00:09;23.20;74.80
34008;DHT22;41085;51.594;7.138;2022-08-23T07:04:12;23.20;74.20
34008;DHT22;41085;51.594;7.138;2022-08-23T07:08:14;23.40;73.50
34008;DHT22;41085;51.594;7.138;2022-08-23T07:12:14;23.30;72.20
34008;DHT22;41085;51.594;7.138;2022-08-23T07:16:16;23.30;72.20
34008;DHT22;41085;51.594;7.138;2022-08-23T07:20:17;23.50;72.80
34008;DHT22;41085;51.594;7.138;2022-08-23T07:24:19;23.60;73.20
34008;DHT22;41085;51.594;7.138;2022-08-23T07:28:20;23.70;73.30
34008;DHT22;41085;51.594;7.138;2022-08-23T07:32:24;23.70;73.30
34008;DHT22;41085;51.594;7.138;2022-08-23T07:36:26;23.30;72.90
34008;DHT22;41085;51.594;7.138;2022-08-23T07:40:27;23.90;73.10
34008;DHT22;41085;51.594;7.138;2022-08-23T07:44:27;24.00;73.30
34008;DHT22;41085;51.594;7.138;2022-08-23T07:48:28;24.00;73.00
34008;DHT22;41085;51.594;7.138;2022-08-23T07:52:29;24.00;73.00
34008;DHT22;41085;51.594;7.138;2022-08-23T07:56:30;24.10;73.20
34008;DHT22;41085;51.594;7.138;2022-08-23T08:00:30;24.10;73.30
34008;DHT22;41085;51.594;7.138;2022-08-23T08:04:31;24.10;73.30
34008;DHT22;41085;51.594;7.138;2022-08-23T08:08:31;24.20;73.40
34008;DHT22;41085;51.594;7.138;2022-08-23T08:12:32;24.20;73.60
34008;DHT22;41085;51.594;7.138;2022-08-23T08:16:44;24.20;73.60
34008;DHT22;41085;51.594;7.138;2022-08-23T08:20:45;24.30;73.70
34008;DHT22;41085;51.594;7.138;2022-08-23T08:24:46;24.30;73.70
34008;DHT22;41085;51.594;7.138;2022-08-23T08:28:47;24.30;73.70
34008;DHT22;41085;51.594;7.138;2022-08-23T08:32:48;24.30;73.80
34008;DHT22;41085;51.594;7.138;2022-08-23T08:36:53;24.40;73.90
34008;DHT22;41085;51.594;7.138;2022-08-23T08:41:17;24.40;73.80
34008;DHT22;41085;51.594;7.138;2022-08-23T08:45:27;24.40;73.80
34008;DHT22;41085;51.594;7.138;2022-08-23T08:53:43;24.50;73.50
34008;DHT22;41085;51.594;7.138;2022-08-23T08:57:47;24.50;73.60
34008;DHT22;41085;51.594;7.138;2022-08-23T09:01:49;24.50;73.80
34008;DHT22;41085;51.594;7.138;2022-08-23T09:14:25;24.50;73.90
34008;DHT22;41085;51.594;7.138;2022-08-23T09:18:33;24.60;74.00
34008;DHT22;41085;51.594;7.138;2022-08-23T09:22:49;24.60;74.00
34008;DHT22;41085;51.594;7.138;2022-08-23T09:26:50;24.60;74.00
34008;DHT22;41085;51.594;7.138;2022-08-23T09:30:55;24.70;73.70
34008;DHT22;41085;51.594;7.138;2022-08-23T09:35:25;24.80;72.30
34008;DHT22;41085;51.594;7.138;2022-08-23T09:39:31;24.80;70.80
34008;DHT22;41085;51.594;7.138;2022-08-23T09:43:42;24.80;70.90
34008;DHT22;41085;51.594;7.138;2022-08-23T09:47:43;24.90;69.00
34008;DHT22;41085;51.594;7.138;2022-08-23T09:51:44;24.90;69.00
34008;DHT22;41085;51.594;7.138;2022-08-23T09:55:50;24.80;69.40
34008;DHT22;41085;51.594;7.138;2022-08-23T09:59:51;24.90;69.40
34008;DHT22;41085;51.594;7.138;2022-08-23T10:04:15;25.00;69.00
34008;DHT22;41085;51.594;7.138;2022-08-23T10:08:28;25.00;69.00
34008;DHT22;41085;51.594;7.138;2022-08-23T10:12:28;25.10;68.30
34008;DHT22;41085;51.594;7.138;2022-08-23T10:16:37;25.10;67.20
34008;DHT22;41085;51.594;7.138;2022-08-23T10:21:10;25.20;67.60
34008;DHT22;41085;51.594;7.138;2022-08-23T10:25:30;25.20;67.30
34008;DHT22;41085;51.594;7.138;2022-08-23T10:29:42;25.20;67.10
34008;DHT22;41085;51.594;7.138;2022-08-23T10:33:51;25.20;67.40
34008;DHT22;41085;51.594;7.138;2022-08-23T10:42:10;25.30;66.60
34008;DHT22;41085;51.594;7.138;2022-08-23T10:46:16;25.30;67.10
34008;DHT22;41085;51.594;7.138;2022-08-23T10:50:19;25.50;67.20
34008;DHT22;41085;51.594;7.138;2022-08-23T10:54:46;25.40;68.80
34008;DHT22;41085;51.594;7.138;2022-08-23T10:59:02;25.30;68.00
34008;DHT22;41085;51.594;7.138;2022-08-23T11:03:31;25.20;68.10
34008;DHT22;41085;51.594;7.138;2022-08-23T11:07:38;25.30;67.90
34008;DHT22;41085;51.594;7.138;2022-08-23T11:16:04;25.20;67.90
34008;DHT22;41085;51.594;7.138;2022-08-23T11:20:11;25.20;68.00
34008;DHT22;41085;51.594;7.138;2022-08-23T11:32:32;25.30;67.40
34008;DHT22;41085;51.594;7.138;2022-08-23T11:36:36;25.30;67.40
34008;DHT22;41085;51.594;7.138;2022-08-23T11:44:50;25.30;67.20
34008;DHT22;41085;51.594;7.138;2022-08-23T12:01:55;25.40;66.90
34008;DHT22;41085;51.594;7.138;2022-08-23T12:06:13;25.30;67.30
34008;DHT22;41085;51.594;7.138;2022-08-23T12:10:16;25.30;67.60
34008;DHT22;41085;51.594;7.138;2022-08-23T12:14:35;25.30;67.70
34008;DHT22;41085;51.594;7.138;2022-08-23T12:23:00;25.40;67.60
34008;DHT22;41085;51.594;7.138;2022-08-23T12:39:53;25.40;67.80
34008;DHT22;41085;51.594;7.138;2022-08-23T12:43:58;25.40;67.70
34008;DHT22;41085;51.594;7.138;2022-08-23T12:48:01;25.40;67.70
34008;DHT22;41085;51.594;7.138;2022-08-23T12:52:08;25.40;67.60
34008;DHT22;41085;51.594;7.138;2022-08-23T12:56:24;25.40;67.90
34008;DHT22;41085;51.594;7.138;2022-08-23T13:00:40;25.40;67.90
34008;DHT22;41085;51.594;7.138;2022-08-23T13:04:43;25.40;67.80
34008;DHT22;41085;51.594;7.138;2022-08-23T13:08:48;25.40;67.90
34008;DHT22;41085;51.594;7.138;2022-08-23T13:12:52;25.40;67.70
34008;DHT22;41085;51.594;7.138;2022-08-23T13:16:53;25.40;67.50
34008;DHT22;41085;51.594;7.138;2022-08-23T13:25:26;25.80;67.70
34008;DHT22;41085;51.594;7.138;2022-08-23T13:29:27;25.40;67.00
34008;DHT22;41085;51.594;7.138;2022-08-23T13:33:28;25.50;68.40
34008;DHT22;41085;51.594;7.138;2022-08-23T13:37:30;26.70;67.70
34008;DHT22;41085;51.594;7.138;2022-08-23T13:41:33;25.40;66.90
34008;DHT22;41085;51.594;7.138;2022-08-23T13:45:36;25.50;66.60
34008;DHT22;41085;51.594;7.138;2022-08-23T13:49:43;25.50;67.10
34008;DHT22;41085;51.594;7.138;2022-08-23T13:53:43;25.50;67.50
34008;DHT22;41085;51.594;7.138;2022-08-23T13:57:44;25.50;66.50
34008;DHT22;41085;51.594;7.138;2022-08-23T14:01:47;25.50;66.60
34008;DHT22;41085;51.594;7.138;2022-08-23T14:05:47;25.60;66.50
34008;DHT22;41085;51.594;7.138;2022-08-23T14:09:48;25.50;66.70
34008;DHT22;41085;51.594;7.138;2022-08-23T14:13:49;25.50;67.90
34008;DHT22;41085;51.594;7.138;2022-08-23T14:17:51;25.60;66.70
34008;DHT22;41085;51.594;7.138;2022-08-23T14:21:52;25.60;66.70
34008;DHT22;41085;51.594;7.138;2022-08-23T14:25:54;25.60;66.50
34008;DHT22;41085;51.594;7.138;2022-08-23T14:29:55;25.70;67.30
34008;DHT22;41085;51.594;7.138;2022-08-23T14:33:56;25.60;66.90
34008;DHT22;41085;51.594;7.138;2022-08-23T14:37:57;25.70;66.50
34008;DHT22;41085;51.594;7.138;2022-08-23T14:41:57;25.60;66.40
34008;DHT22;41085;51.594;7.138;2022-08-23T14:45:58;25.70;66.80
34008;DHT22;41085;51.594;7.138;2022-08-23T14:50:01;25.70;66.30
34008;DHT22;41085;51.594;7.138;2022-08-23T14:54:05;25.70;66.50
34008;DHT22;41085;51.594;7.138;2022-08-23T14:58:06;25.70;66.50
34008;DHT22;41085;51.594;7.138;2022-08-23T15:02:10;25.70;66.70
34008;DHT22;41085;51.594;7.138;2022-08-23T15:06:12;25.70;66.70
34008;DHT22;41085;51.594;7.138;2022-08-23T15:10:14;25.70;66.60
34008;DHT22;41085;51.594;7.138;2022-08-23T15:14:16;25.70;66.70
34008;DHT22;41085;51.594;7.138;2022-08-23T15:18:16;25.70;66.80
34008;DHT22;41085;51.594;7.138;2022-08-23T15:22:17;25.70;67.70
34008;DHT22;41085;51.594;7.138;2022-08-23T15:26:21;25.70;67.20
34008;DHT22;41085;51.594;7.138;2022-08-23T15:30:23;25.70;67.00
34008;DHT22;41085;51.594;7.138;2022-08-23T15:34:23;25.80;67.20
34008;DHT22;41085;51.594;7.138;2022-08-23T15:38:25;25.80;67.00
34008;DHT22;41085;51.594;7.138;2022-08-23T15:42:26;25.80;68.00
34008;DHT22;41085;51.594;7.138;2022-08-23T15:46:26;25.80;67.10
34008;DHT22;41085;51.594;7.138;2022-08-23T15:50:29;25.80;67.20
34008;DHT22;41085;51.594;7.138;2022-08-23T15:54:31;25.80;67.40
34008;DHT22;41085;51.594;7.138;2022-08-23T15:58:32;25.80;67.20
34008;DHT22;41085;51.594;7.138;2022-08-23T16:02:33;25.90;67.30
34008;DHT22;41085;51.594;7.138;2022-08-23T16:06:34;25.90;67.10
34008;DHT22;41085;51.594;7.138;2022-08-23T16:10:36;26.00;67.10
34008;DHT22;41085;51.594;7.138;2022-08-23T16:14:38;25.90;66.80
34008;DHT22;41085;51.594;7.138;2022-08-23T16:18:38;26.00;66.70
34008;DHT22;41085;51.594;7.138;2022-08-23T16:22:39;26.00;67.20
34008;DHT22;41085;51.594;7.138;2022-08-23T16:26:43;26.00;67.20
34008;DHT22;41085;51.594;7.138;2022-08-23T16:30:44;26.00;67.00
34008;DHT22;41085;51.594;7.138;2022-08-23T16:34:44;26.00;67.00
34008;DHT22;41085;51.594;7.138;2022-08-23T16:38:45;26.00;67.30
34008;DHT22;41085;51.594;7.138;2022-08-23T16:42:47;26.00;67.30
34008;DHT22;41085;51.594;7.138;2022-08-23T16:46:47;26.00;67.10
34008;DHT22;41085;51.594;7.138;2022-08-23T16:50:49;26.10;67.20
34008;DHT22;41085;51.594;7.138;2022-08-23T16:54:50;26.10;67.40
34008;DHT22;41085;51.594;7.138;2022-08-23T16:58:50;26.10;67.50
34008;DHT22;41085;51.594;7.138;2022-08-23T17:02:51;26.40;68.40
34008;DHT22;41085;51.594;7.138;2022-08-23T17:06:52;26.30;67.20
34008;DHT22;41085;51.594;7.138;2022-08-23T17:10:53;26.30;67.10
34008;DHT22;41085;51.594;7.138;2022-08-23T17:14:53;26.30;67.30
34008;DHT22;41085;51.594;7.138;2022-08-23T17:18:56;26.20;67.50
34008;DHT22;41085;51.594;7.138;2022-08-23T17:22:57;26.20;68.20
34008;DHT22;41085;51.594;7.138;2022-08-23T17:26:58;26.20;68.50
34008;DHT22;41085;51.594;7.138;2022-08-23T17:30:59;26.10;68.60
34008;DHT22;41085;51.594;7.138;2022-08-23T17:34:59;26.10;69.10
34008;DHT22;41085;51.594;7.138;2022-08-23T17:39:01;26.10;69.40
34008;DHT22;41085;51.594;7.138;2022-08-23T17:43:05;26.10;69.30
34008;DHT22;41085;51.594;7.138;2022-08-23T17:47:11;26.10;69.20
34008;DHT22;41085;51.594;7.138;2022-08-23T17:51:13;26.10;69.10
34008;DHT22;41085;51.594;7.138;2022-08-23T17:55:13;26.00;69.00
34008;DHT22;41085;51.594;7.138;2022-08-23T17:59:18;26.00;69.10
34008;DHT22;41085;51.594;7.138;2022-08-23T18:03:19;26.00;69.10
34008;DHT22;41085;51.594;7.138;2022-08-23T18:07:20;26.00;69.10
34008;DHT22;41085;51.594;7.138;2022-08-23T18:11:21;26.00;69.10
34008;DHT22;41085;51.594;7.138;2022-08-23T18:15:22;26.00;69.20
34008;DHT22;41085;51.594;7.138;2022-08-23T18:19:23;26.00;69.10
34008;DHT22;41085;51.594;7.138;2022-08-23T18:23:23;26.00;69.20
34008;DHT22;41085;51.594;7.138;2022-08-23T18:27:24;26.00;69.10
34008;DHT22;41085;51.594;7.138;2022-08-23T18:31:44;26.00;69.30
34008;DHT22;41085;51.594;7.138;2022-08-23T18:35:46;26.10;69.20
34008;DHT22;41085;51.594;7.138;2022-08-23T18:39:47;26.00;69.20
34008;DHT22;41085;51.594;7.138;2022-08-23T18:43:48;26.00;69.30
34008;DHT22;41085;51.594;7.138;2022-08-23T18:47:49;26.00;69.30
34008;DHT22;41085;51.594;7.138;2022-08-23T18:51:49;26.00;69.40
34008;DHT22;41085;51.594;7.138;2022-08-23T18:55:50;26.00;69.30
34008;DHT22;41085;51.594;7.138;2022-08-23T18:59:51;26.00;69.40
34008;DHT22;41085;51.594;7.138;2022-08-23T19:03:53;26.00;69.40
34008;DHT22;41085;51.594;7.138;2022-08-23T19:07:54;26.00;69.40
34008;DHT22;41085;51.594;7.138;2022-08-23T19:11:54;26.00;69.50
34008;DHT22;41085;51.594;7.138;2022-08-23T19:16:00;26.00;69.50
34008;DHT22;41085;51.594;7.138;2022-08-23T19:20:00;26.00;69.60
34008;DHT22;41085;51.594;7.138;2022-08-23T19:24:01;26.00;69.60
34008;DHT22;41085;51.594;7.138;2022-08-23T19:28:04;26.00;69.70
34008;DHT22;41085;51.594;7.138;2022-08-23T19:32:04;26.00;69.80
34008;DHT22;41085;51.594;7.138;2022-08-23T19:36:05;26.00;69.80
34008;DHT22;41085;51.594;7.138;2022-08-23T19:40:06;26.00;69.80
34008;DHT22;41085;51.594;7.138;2022-08-23T19:44:08;25.90;69.70
34008;DHT22;41085;51.594;7.138;2022-08-23T19:48:10;26.00;69.80
34008;DHT22;41085;51.594;7.138;2022-08-23T19:52:11;25.90;69.80
34008;DHT22;41085;51.594;7.138;2022-08-23T19:56:11;25.90;69.90
34008;DHT22;41085;51.594;7.138;2022-08-23T20:00:13;25.90;69.90
34008;DHT22;41085;51.594;7.138;2022-08-23T20:04:14;25.90;70.00
34008;DHT22;41085;51.594;7.138;2022-08-23T20:08:15;25.90;70.00
34008;DHT22;41085;51.594;7.138;2022-08-23T20:12:16;25.90;70.10
34008;DHT22;41085;51.594;7.138;2022-08-23T20:16:16;25.90;70.20
34008;DHT22;41085;51.594;7.138;2022-08-23T20:20:17;25.90;70.20
34008;DHT22;41085;51.594;7.138;2022-08-23T20:24:18;25.90;70.20
34008;DHT22;41085;51.594;7.138;2022-08-23T20:28:18;25.90;70.20
34008;DHT22;41085;51.594;7.138;2022-08-23T20:32:19;26.00;70.20
34008;DHT22;41085;51.594;7.138;2022-08-23T20:36:20;25.90;70.20
34008;DHT22;41085;51.594;7.138;2022-08-23T20:40:20;25.90;70.30
34008;DHT22;41085;51.594;7.138;2022-08-23T20:44:23;25.90;71.00
34008;DHT22;41085;51.594;7.138;2022-08-23T20:48:24;25.90;70.30
34008;DHT22;41085;51.594;7.138;2022-08-23T20:52:25;25.90;70.40
34008;DHT22;41085;51.594;7.138;2022-08-23T20:56:26;25.90;70.40
34008;DHT22;41085;51.594;7.138;2022-08-23T21:00:27;26.00;70.50
34008;DHT22;41085;51.594;7.138;2022-08-23T21:04:28;25.90;70.50
34008;DHT22;41085;51.594;7.138;2022-08-23T21:08:29;25.90;70.50
34008;DHT22;41085;51.594;7.138;2022-08-23T21:12:30;25.90;70.50
34008;DHT22;41085;51.594;7.138;2022-08-23T21:16:31;25.90;70.50
34008;DHT22;41085;51.594;7.138;2022-08-23T21:20:31;25.90;70.50
34008;DHT22;41085;51.594;7.138;2022-08-23T21:24:32;25.90;71.30
34008;DHT22;41085;51.594;7.138;2022-08-23T21:28:33;26.00;70.70
34008;DHT22;41085;51.594;7.138;2022-08-23T21:32:35;25.90;70.50
34008;DHT22;41085;51.594;7.138;2022-08-23T21:36:36;25.90;70.60
34008;DHT22;41085;51.594;7.138;2022-08-23T21:40:36;25.90;70.60
34008;DHT22;41085;51.594;7.138;2022-08-23T21:44:37;25.90;70.60
34008;DHT22;41085;51.594;7.138;2022-08-23T21:48:38;25.90;70.60
34008;DHT22;41085;51.594;7.138;2022-08-23T21:52:38;25.90;70.70
34008;DHT22;41085;51.594;7.138;2022-08-23T21:56:40;26.00;71.00
34008;DHT22;41085;51.594;7.138;2022-08-23T22:00:41;26.00;72.70
34008;DHT22;41085;51.594;7.138;2022-08-23T22:04:45;25.80;73.70
34008;DHT22;41085;51.594;7.138;2022-08-23T22:08:46;25.80;73.50
34008;DHT22;41085;51.594;7.138;2022-08-23T22:12:46;25.80;74.10
34008;DHT22;41085;51.594;7.138;2022-08-23T22:16:48;25.80;74.70
34008;DHT22;41085;51.594;7.138;2022-08-23T22:20:48;25.70;74.80
34008;DHT22;41085;51.594;7.138;2022-08-23T22:24:49;25.70;75.40
34008;DHT22;41085;51.594;7.138;2022-08-23T22:28:50;25.60;75.30
34008;DHT22;41085;51.594;7.138;2022-08-23T22:32:51;26.00;76.70
34008;DHT22;41085;51.594;7.138;2022-08-23T22:36:51;25.60;76.20
34008;DHT22;41085;51.594;7.138;2022-08-23T22:40:52;25.60;75.90
34008;DHT22;41085;51.594;7.138;2022-08-23T22:44:54;25.60;75.70
34008;DHT22;41085;51.594;7.138;2022-08-23T22:48:55;25.60;76.00
34008;DHT22;41085;51.594;7.138;2022-08-23T22:52:56;25.50;76.10
34008;DHT22;41085;51.594;7.138;2022-08-23T22:56:56;25.50;76.30
34008;DHT22;41085;51.594;7.138;2022-08-23T23:00:57;25.50;76.90
34008;DHT22;41085;51.594;7.138;2022-08-23T23:05:12;25.50;76.40
34008;DHT22;41085;51.594;7.138;2022-08-23T23:09:13;25.40;76.40
34008;DHT22;41085;51.594;7.138;2022-08-23T23:13:14;25.40;77.00
34008;DHT22;41085;51.594;7.138;2022-08-23T23:17:18;25.40;77.40
34008;DHT22;41085;51.594;7.138;2022-08-23T23:21:18;25.40;77.10
34008;DHT22;41085;51.594;7.138;2022-08-23T23:25:19;25.30;77.20
34008;DHT22;41085;51.594;7.138;2022-08-23T23:29:21;25.30;77.80
34008;DHT22;41085;51.594;7.138;2022-08-23T23:33:23;25.30;77.50
34008;DHT22;41085;51.594;7.138;2022-08-23T23:37:23;25.30;78.00
34008;DHT22;41085;51.594;7.138;2022-08-23T23:41:24;25.30;78.60
34008;DHT22;41085;51.594;7.138;2022-08-23T23:45:25;25.20;78.20
34008;DHT22;41085;51.594;7.138;2022-08-23T23:49:27;25.20;78.20
34008;DHT22;41085;51.594;7.138;2022-08-23T23:53:28;25.20;78.20
34008;DHT22;41085;51.594;7.138;2022-08-23T23:57:29;25.20;78.30
